Time;durP1;ratioP1;P1;durP2;ratioP2;P2;SDS_P1;SDS_P2;PMS_P1;PMS_P2;Temp;Humidity;BMP_temperature;BMP_pressure;BME280_temperature;BME280_humidity;BME280_pressure;Samples;Min_cycle;Max_cycle;Signal;HPM_P1;HPM_P2
2023/10/15 00:01:28;;;;;;;;;;;;;;;26.69;43.48;94468.31;5012499;28;8977;-63
2023/10/15 00:04:04;;;;;;;;;;;;;;;26.69;43.33;94476.59;5012022;28;7235;-63
2023/10/15 00:06:45;;;;;;;;;;;;;;;26.67;43.32;94473.59;4985431;28;7239;-63
2023/10/15 00:09:13;;;;;;;;;;;;;;;26.66;43.57;94464.59;5020599;28;6994;-63
2023/10/15 00:11:40;;;;;;;;;;;;;;;26.65;43.26;94465.09;5012100;28;7424;-63
2023/10/15 00:14:15;;;;;;;;;;;;;;;26.65;43.29;94470.63;5004953;28;7241;-56
2023/10/15 00:17:14;;;;;;;;;;;;;;;26.68;43.21;94469.59;4995021;28;7522;-56
2023/10/15 00:19:41;;;;;;;;;;;;;;;26.63;43.12;94468.38;4952230;28;9090;-56
2023/10/15 00:22:22;;;;;;;;;;;;;;;26.66;42.97;94474.88;4953110;28;7521;-56
2023/10/15 00:24:50;;;;;;;;;;;;;;;26.66;42.86;94481.16;4953406;28;7482;-56
2023/10/15 00:27:29;;;;;;;;;;;;;;;26.66;43.34;94492.19;4937268;28;9179;-56
2023/10/15 00:30:18;;;;;;;;;;;;;;;26.66;43.34;94486.69;4972458;28;7083;-57
2023/10/15 00:32:52;;;;;;;;;;;;;;;26.62;43.33;94469.63;4992608;28;8801;-57
2023/10/15 00:35:20;;;;;;;;;;;;;;;26.64;43.60;94474.66;5011029;28;7285;-56
2023/10/15 00:37:55;;;;;;;;;;;;;;;26.66;43.19;94475.66;5010762;28;7253;-57
2023/10/15 00:40:29;;;;;;;;;;;;;;;26.63;43.33;94454.59;4994994;28;7186;-56
2023/10/15 00:43:00;;;;;;;;;;;;;;;26.65;43.11;94456.81;5001825;28;7262;-56
2023/10/15 00:45:26;;;;;;;;;;;;;;;26.65;43.22;94451.31;4990428;28;7017;-56
2023/10/15 00:48:07;;;;;;;;;;;;;;;26.63;43.05;94454.59;5005991;28;7603;-56
2023/10/15 00:50:41;;;;;;;;;;;;;;;26.61;43.53;94437.81;5019128;28;7267;-56
2023/10/15 00:53:26;;;;;;;;;;;;;;;26.61;43.38;94445.34;5015416;28;8417;-56
2023/10/15 00:56:10;;;;;;;;;;;;;;;26.62;43.35;94436.53;5054775;28;6983;-56
2023/10/15 00:58:54;;;;;;;;;;;;;;;26.62;43.24;94441.31;5056260;28;7246;-56
2023/10/15 01:01:26;;;;;;;;;;;;;;;26.62;43.17;94444.81;5042806;28;7166;-57
2023/10/15 01:04:10;;;;;;;;;;;;;;;26.61;43.47;94451.59;5086650;28;9191;-56
2023/10/15 01:06:39;;;;;;;;;;;;;;;26.61;43.30;94446.09;5078073;28;7333;-56
2023/10/15 01:09:41;;;;;;;;;;;;;;;26.61;43.24;94437.06;5036026;28;8764;-56
2023/10/15 01:12:30;;;;;;;;;;;;;;;26.59;42.96;94431.31;5054994;28;7651;-56
2023/10/15 01:14:59;;;;;;;;;;;;;;;26.60;43.16;94430.78;5051792;28;7454;-57
2023/10/15 01:17:26;;;;;;;;;;;;;;;26.61;43.03;94440.56;5067834;28;9210;-56
2023/10/15 01:19:54;;;;;;;;;;;;;;;26.61;43.07;94448.09;5051421;28;7816;-56
2023/10/15 01:22:32;;;;;;;;;;;;;;;26.60;43.34;94450.09;5090182;28;7215;-56
2023/10/15 01:25:24;;;;;;;;;;;;;;;26.60;43.50;94443.84;5078468;28;8551;-63
2023/10/15 01:27:58;;;;;;;;;;;;;;;26.60;43.29;94452.13;5064796;28;9091;-63
2023/10/15 01:30:24;;;;;;;;;;;;;;;26.61;43.03;94453.59;5053789;28;7014;-63
2023/10/15 01:32:50;;;;;;;;;;;;;;;26.60;43.06;94444.56;5052235;28;8720;-63
2023/10/15 01:35:25;;;;;;;;;;;;;;;26.60;43.31;94439.06;5067939;28;7041;-63
2023/10/15 01:38:10;;;;;;;;;;;;;;;26.57;43.11;94433.84;5046187;28;6989;-63
2023/10/15 01:40:56;;;;;;;;;;;;;;;26.58;43.48;94438.06;5054352;28;6980;-63
2023/10/15 01:43:27;;;;;;;;;;;;;;;26.57;42.94;94442.88;5047419;28;7289;-63
2023/10/15 01:45:57;;;;;;;;;;;;;;;26.58;43.17;94449.09;5060213;28;8738;-63
2023/10/15 01:48:24;;;;;;;;;;;;;;;26.57;43.35;94442.13;5047977;28;7290;-63
2023/10/15 01:51:04;;;;;;;;;;;;;;;26.59;42.79;94445.09;5063963;28;7037;-63
2023/10/15 01:53:34;;;;;;;;;;;;;;;26.55;43.76;94441.88;5059829;28;7088;-63
2023/10/15 01:56:04;;;;;;;;;;;;;;;26.56;43.36;94446.88;5059903;28;6982;-63
2023/10/15 01:58:39;;;;;;;;;;;;;;;26.57;43.32;94442.13;5086722;28;7027;-63
2023/10/15 02:01:31;;;;;;;;;;;;;;;26.57;43.26;94456.66;5070412;28;8756;-63
2023/10/15 02:04:05;;;;;;;;;;;;;;;26.55;43.32;94458.44;5068144;28;6985;-63
2023/10/15 02:06:42;;;;;;;;;;;;;;;26.56;43.46;94452.41;5084699;28;7176;-63
2023/10/15 02:09:12;;;;;;;;;;;;;;;26.57;43.14;94450.38;5060429;28;7061;-63
2023/10/15 02:11:57;;;;;;;;;;;;;;;26.57;43.00;94456.66;5068627;28;7186;-62
2023/10/15 02:14:27;;;;;;;;;;;;;;;26.58;43.15;94458.13;5066897;28;7119;-62
2023/10/15 02:16:53;;;;;;;;;;;;;;;26.58;42.90;94462.91;5081825;28;7170;-63
2023/10/15 02:19:40;;;;;;;;;;;;;;;26.58;42.90;94462.91;5056578;28;8743;-63
2023/10/15 02:22:43;;;;;;;;;;;;;;;26.57;43.18;94464.19;5068806;28;7229;-63
2023/10/15 02:25:44;;;;;;;;;;;;;;;26.57;43.17;94467.69;5009274;28;8911;-63
2023/10/15 02:28:24;;;;;;;;;;;;;;;26.57;42.80;94464.19;5005087;28;7467;-62
2023/10/15 02:33:38;;;;;;;;;;;;;;;26.57;43.38;94461.41;5009871;28;7348;-61
2023/10/15 02:36:36;;;;;;;;;;;;;;;26.56;43.19;94463.44;5002485;28;7255;-61
2023/10/15 02:39:03;;;;;;;;;;;;;;;26.57;43.30;94466.94;4996236;28;7095;-61
2023/10/15 02:41:52;;;;;;;;;;;;;;;26.58;43.62;94471.19;5004569;28;8673;-61
2023/10/15 02:44:20;;;;;;;;;;;;;;;26.57;43.03;94461.41;5008526;28;7351;-61
2023/10/15 02:46:49;;;;;;;;;;;;;;;26.50;43.07;94456.47;5013001;28;9038;-60
2023/10/15 02:49:25;;;;;;;;;;;;;;;26.53;43.19;94460.97;5010580;28;7250;-61
2023/10/15 02:51:53;;;;;;;;;;;;;;;26.52;43.10;94457.44;5000483;28;8830;-61
2023/10/15 02:54:37;;;;;;;;;;;;;;;26.53;43.19;94455.44;5008173;28;7028;-61
2023/10/15 02:57:04;;;;;;;;;;;;;;;26.54;43.08;94451.41;4982104;28;7237;-60
2023/10/15 02:59:31;;;;;;;;;;;;;;;26.54;43.20;94454.94;4946243;28;1176638;-61
2023/10/15 03:02:06;;;;;;;;;;;;;;;26.53;42.86;94449.94;5057776;28;8817;-61
2023/10/15 03:04:37;;;;;;;;;;;;;;;26.51;43.29;94450.44;5058840;28;7529;-60
2023/10/15 03:07:19;;;;;;;;;;;;;;;26.51;43.29;94463.50;5050935;28;7488;-61
2023/10/15 03:09:51;;;;;;;;;;;;;;;26.50;43.37;94464.75;5063904;28;9059;-61
2023/10/15 03:12:21;;;;;;;;;;;;;;;26.50;43.74;94450.94;5072036;28;7016;-61
2023/10/15 03:14:57;;;;;;;;;;;;;;;26.51;43.14;94450.44;5042566;28;7052;-61
2023/10/15 03:17:29;;;;;;;;;;;;;;;26.51;43.35;94453.19;5037043;28;9501;-60
2023/10/15 03:19:56;;;;;;;;;;;;;;;26.49;42.89;94441.19;5037420;28;9361;-61
2023/10/15 03:22:30;;;;;;;;;;;;;;;26.51;43.45;94446.94;5058284;28;7074;-61
2023/10/15 03:25:34;;;;;;;;;;;;;;;26.51;43.39;94447.66;5062489;28;7140;-61
2023/10/15 03:28:01;;;;;;;;;;;;;;;26.51;43.37;94455.22;5030830;28;7522;-61
2023/10/15 03:30:33;;;;;;;;;;;;;;;26.49;43.07;94438.44;5013778;28;9189;-61
2023/10/15 03:33:00;;;;;;;;;;;;;;;26.51;43.11;94452.47;5032510;28;9105;-61
2023/10/15 03:36:03;;;;;;;;;;;;;;;26.49;43.27;94454.97;5015994;28;7202;-61
2023/10/15 03:38:33;;;;;;;;;;;;;;;26.52;42.99;94459.47;4924025;29;9109;-60
2023/10/15 03:44:11;;;;;;;;;;;;;;;26.47;43.17;94452.00;4925838;29;7271;-61
2023/10/15 03:47:06;;;;;;;;;;;;;;;26.49;43.40;94466.75;4934509;29;6972;-61
2023/10/15 03:50:08;;;;;;;;;;;;;;;26.48;43.15;94467.28;4920410;29;9218;-61
2023/10/15 03:52:35;;;;;;;;;;;;;;;26.47;43.32;94468.53;4871411;29;8773;-61
2023/10/15 03:55:14;;;;;;;;;;;;;;;26.47;43.18;94463.03;4886815;29;7025;-60
2023/10/15 03:57:53;;;;;;;;;;;;;;;26.45;42.84;94460.75;4873269;29;9107;-61
2023/10/15 04:00:46;;;;;;;;;;;;;;;26.45;43.15;94460.00;4863943;29;7307;-61
2023/10/15 04:03:28;;;;;;;;;;;;;;;26.47;43.14;94463.03;4895496;29;9164;-61
2023/10/15 04:06:17;;;;;;;;;;;;;;;26.43;43.25;94455.03;4900427;29;9315;-61
2023/10/15 04:11:45;;;;;;;;;;;;;;;26.42;43.17;94450.78;4915473;29;7289;-60
2023/10/15 04:14:32;;;;;;;;;;;;;;;26.40;43.22;94447.03;4910962;28;7325;-61
2023/10/15 04:16:59;;;;;;;;;;;;;;;26.44;43.41;94451.00;4956986;28;7146;-61
2023/10/15 04:19:30;;;;;;;;;;;;;;;26.45;42.96;94449.72;4979691;28;9088;-61
2023/10/15 04:22:14;;;;;;;;;;;;;;;26.42;42.86;94450.03;5008442;28;6976;-61
2023/10/15 04:24:50;;;;;;;;;;;;;;;26.42;42.96;94445.25;4982538;28;7226;-60
2023/10/15 04:27:18;;;;;;;;;;;;;;;26.42;43.66;94445.25;4996055;28;7201;-61
2023/10/15 04:29:55;;;;;;;;;;;;;;;26.41;43.25;94443.00;5047126;28;9081;-61
2023/10/15 04:32:45;;;;;;;;;;;;;;;26.43;43.00;94437.72;5076945;28;7237;-61
2023/10/15 04:35:18;;;;;;;;;;;;;;;26.43;43.08;94440.47;5045541;28;6995;-61
2023/10/15 04:37:45;;;;;;;;;;;;;;;26.40;43.21;94433.25;5046018;28;7275;-61
2023/10/15 04:40:24;;;;;;;;;;;;;;;26.40;43.28;94442.28;5064746;28;8743;-61
2023/10/15 04:43:03;;;;;;;;;;;;;;;26.43;43.26;94434.97;5052742;28;8839;-61
2023/10/15 04:45:40;;;;;;;;;;;;;;;26.44;42.95;94436.47;5041025;28;7326;-61
2023/10/15 04:48:15;;;;;;;;;;;;;;;26.41;42.95;94434.72;5054310;28;7242;-61
2023/10/15 04:50:43;;;;;;;;;;;;;;;26.44;43.23;94445.50;5036584;28;8784;-61
2023/10/15 04:55:52;;;;;;;;;;;;;;;26.44;43.60;94444.75;5060183;28;9308;-63
2023/10/15 04:58:20;;;;;;;;;;;;;;;26.42;43.21;94439.00;5051151;28;7409;-63
2023/10/15 05:00:48;;;;;;;;;;;;;;;26.43;42.79;94446.75;5063205;28;8914;-63
2023/10/15 05:03:15;;;;;;;;;;;;;;;26.42;43.40;94444.50;5062419;28;7511;-63
2023/10/15 05:05:46;;;;;;;;;;;;;;;26.41;43.18;94443.00;5070039;28;6971;-63
2023/10/15 05:08:17;;;;;;;;;;;;;;;26.38;42.83;94441.28;5057354;28;9095;-62
2023/10/15 05:10:53;;;;;;;;;;;;;;;26.39;43.23;94445.53;5071935;28;7287;-63
2023/10/15 05:13:24;;;;;;;;;;;;;;;26.37;43.36;94437.03;5064834;28;7329;-63
2023/10/15 05:16:15;;;;;;;;;;;;;;;26.40;43.44;94441.53;5087830;28;7170;-63
2023/10/15 05:18:44;;;;;;;;;;;;;;;26.38;43.57;94444.78;5051188;28;7726;-63
2023/10/15 05:21:13;;;;;;;;;;;;;;;26.39;43.08;94445.53;5055195;28;9429;-63
2023/10/15 05:24:07;;;;;;;;;;;;;;;26.40;43.18;94447.03;5072254;28;7241;-63
2023/10/15 05:26:35;;;;;;;;;;;;;;;26.35;43.58;94443.06;5040567;28;8865;-63
2023/10/15 05:29:15;;;;;;;;;;;;;;;26.37;43.07;94448.81;5075776;28;7241;-62
2023/10/15 05:31:42;;;;;;;;;;;;;;;26.40;43.34;94460.81;5048133;28;7295;-63
2023/10/15 05:34:15;;;;;;;;;;;;;;;26.39;43.04;94453.81;5069028;28;9186;-63
2023/10/15 05:36:53;;;;;;;;;;;;;;;26.40;43.23;94463.59;5055430;28;7467;-63
2023/10/15 05:39:20;;;;;;;;;;;;;;;26.38;42.88;94464.06;5072378;28;9428;-63
2023/10/15 05:41:54;;;;;;;;;;;;;;;26.39;43.11;94468.34;5069099;28;7105;-63
2023/10/15 05:44:20;;;;;;;;;;;;;;;26.39;43.19;94473.84;5074011;28;7256;-63
2023/10/15 05:46:51;;;;;;;;;;;;;;;26.37;42.87;94479.16;5052741;28;7250;-63
2023/10/15 05:49:18;;;;;;;;;;;;;;;26.38;43.22;94471.63;5059247;28;7291;-63
2023/10/15 05:51:53;;;;;;;;;;;;;;;26.39;43.10;94478.63;5050700;28;8794;-63
2023/10/15 05:54:20;;;;;;;;;;;;;;;26.36;43.23;94463.84;5038998;28;7010;-63
2023/10/15 05:56:48;;;;;;;;;;;;;;;26.37;43.20;94459.09;5064883;28;8940;-63
2023/10/15 05:59:15;;;;;;;;;;;;;;;26.37;43.05;94459.09;5058526;28;7144;-62
2023/10/15 06:01:42;;;;;;;;;;;;;;;26.36;43.06;94458.34;5067366;28;7066;-63
2023/10/15 06:04:09;;;;;;;;;;;;;;;26.36;43.38;94476.91;5062976;28;9072;-63
2023/10/15 06:06:37;;;;;;;;;;;;;;;26.37;43.07;94475.63;5097461;28;9213;-63
2023/10/15 06:09:07;;;;;;;;;;;;;;;26.37;43.13;94481.16;5055848;28;7021;-63
2023/10/15 06:11:38;;;;;;;;;;;;;;;26.38;43.18;94483.38;5059395;28;7338;-63
2023/10/15 06:14:05;;;;;;;;;;;;;;;26.35;42.81;94495.47;5085707;28;9085;-62
2023/10/15 06:16:33;;;;;;;;;;;;;;;26.34;43.17;94487.72;5057012;28;7589;-62
2023/10/15 06:18:59;;;;;;;;;;;;;;;26.36;42.88;94507.25;5062622;28;9042;-63
2023/10/15 06:21:25;;;;;;;;;;;;;;;26.36;43.13;94507.97;5048052;28;8973;-63
2023/10/15 06:23:58;;;;;;;;;;;;;;;26.35;43.21;94511.25;5055764;28;7457;-62
2023/10/15 06:26:31;;;;;;;;;;;;;;;26.38;43.00;94515.75;5083991;28;7065;-63
2023/10/15 06:29:00;;;;;;;;;;;;;;;26.37;42.86;94519.75;5076983;28;7168;-63
2023/10/15 06:31:31;;;;;;;;;;;;;;;26.36;43.62;94510.72;5072144;28;7061;-62
2023/10/15 06:34:08;;;;;;;;;;;;;;;26.36;43.44;94510.72;5046155;28;9707;-63
2023/10/15 06:36:37;;;;;;;;;;;;;;;26.32;43.11;94490.22;5053310;28;7555;-63
2023/10/15 06:39:03;;;;;;;;;;;;;;;26.33;43.04;94500.00;5063700;28;7450;-63
2023/10/15 06:41:29;;;;;;;;;;;;;;;26.33;43.06;94502.75;5057871;28;7030;-63
2023/10/15 06:43:57;;;;;;;;;;;;;;;26.33;43.00;94506.25;5053396;28;7330;-62
2023/10/15 06:46:26;;;;;;;;;;;;;;;26.27;42.65;94494.53;5075655;28;7074;-62
2023/10/15 06:48:52;;;;;;;;;;;;;;;26.31;43.24;94500.50;5078225;28;8626;-62
2023/10/15 06:51:18;;;;;;;;;;;;;;;26.31;43.26;94505.28;5080382;28;7042;-62
2023/10/15 06:53:45;;;;;;;;;;;;;;;26.29;43.19;94502.28;5056482;28;7218;-63
2023/10/15 06:56:12;;;;;;;;;;;;;;;26.34;43.63;94518.75;5063415;28;9167;-62
2023/10/15 06:58:38;;;;;;;;;;;;;;;26.33;43.33;94516.53;5072244;28;8758;-63
2023/10/15 07:01:11;;;;;;;;;;;;;;;26.31;43.17;94516.31;5065841;28;9039;-63
2023/10/15 07:03:41;;;;;;;;;;;;;;;26.31;42.89;94527.31;5056431;28;6975;-62
2023/10/15 07:06:34;;;;;;;;;;;;;;;26.30;42.53;94526.56;5046811;28;7248;-62
2023/10/15 07:09:02;;;;;;;;;;;;;;;26.29;43.28;94532.59;5004508;28;9016;-63
2023/10/15 07:11:38;;;;;;;;;;;;;;;26.30;43.10;94539.59;4985983;28;7330;-63
2023/10/15 07:14:05;;;;;;;;;;;;;;;26.28;43.18;94540.13;5007472;28;8673;-63
2023/10/15 07:16:49;;;;;;;;;;;;;;;26.29;43.36;94540.88;5003717;28;7321;-63
2023/10/15 07:19:15;;;;;;;;;;;;;;;26.27;43.26;94541.41;4997855;28;7239;-63
2023/10/15 07:21:42;;;;;;;;;;;;;;;26.28;43.12;94536.59;5007015;28;7209;-63
2023/10/15 07:24:11;;;;;;;;;;;;;;;26.26;42.83;94542.66;5007582;28;8229;-54
2023/10/15 07:26:41;;;;;;;;;;;;;;;26.26;43.16;94545.41;4993985;28;7183;-54
2023/10/15 07:29:21;;;;;;;;;;;;;;;26.28;43.35;94539.38;5009146;28;7237;-54
2023/10/15 07:32:00;;;;;;;;;;;;;;;26.27;42.82;94546.16;5009510;28;9389;-55
2023/10/15 07:34:36;;;;;;;;;;;;;;;26.28;43.22;94544.88;5010789;28;7264;-55
2023/10/15 07:37:25;;;;;;;;;;;;;;;26.30;43.18;94551.38;4994450;28;6993;-55
2023/10/15 07:40:05;;;;;;;;;;;;;;;26.29;43.44;94547.16;5014110;28;7069;-55
2023/10/15 07:42:34;;;;;;;;;;;;;;;26.31;43.33;94557.66;4994130;28;6979;-55
2023/10/15 07:45:05;;;;;;;;;;;;;;;26.28;42.92;94556.66;4998557;28;7062;-54
2023/10/15 07:47:51;;;;;;;;;;;;;;;26.30;43.42;94567.19;5063874;28;9130;-55
2023/10/15 07:50:18;;;;;;;;;;;;;;;26.29;43.21;94563.69;5045882;28;7068;-55
2023/10/15 07:52:48;;;;;;;;;;;;;;;26.28;43.42;94566.94;5053676;28;9044;-55
2023/10/15 07:55:24;;;;;;;;;;;;;;;26.25;42.93;94567.97;5054593;28;7234;-55
2023/10/15 07:57:51;;;;;;;;;;;;;;;26.23;43.28;94574.00;5064952;28;7058;-53
2023/10/15 08:00:23;;;;;;;;;;;;;;;26.26;42.95;94574.97;5052139;28;7242;-55
2023/10/15 08:02:57;;;;;;;;;;;;;;;26.25;43.16;94577.00;5056885;28;9164;-54
2023/10/15 08:05:48;;;;;;;;;;;;;;;26.28;43.11;94583.50;5052891;28;9067;-55
2023/10/15 08:08:14;;;;;;;;;;;;;;;26.23;43.26;94576.00;5049844;28;8560;-55
2023/10/15 08:10:47;;;;;;;;;;;;;;;26.25;43.42;94587.28;5060189;28;7130;-55
2023/10/15 08:13:13;;;;;;;;;;;;;;;26.24;43.24;94592.03;5063444;28;9107;-55
2023/10/15 08:15:50;;;;;;;;;;;;;;;26.24;43.14;94586.53;5042046;28;7070;-55
2023/10/15 08:18:17;;;;;;;;;;;;;;;26.22;43.24;94585.53;5043802;28;7260;-55
2023/10/15 08:20:49;;;;;;;;;;;;;;;26.21;43.35;94593.06;5068449;28;6968;-54
2023/10/15 08:23:54;;;;;;;;;;;;;;;26.24;42.98;94594.81;5059658;28;7020;-55
2023/10/15 08:26:57;;;;;;;;;;;;;;;26.23;43.30;94598.06;4995649;28;8718;-55
2023/10/15 08:29:24;;;;;;;;;;;;;;;26.21;43.51;94597.84;4984563;28;8987;-54
2023/10/15 08:32:16;;;;;;;;;;;;;;;26.20;43.07;94597.09;5010881;28;7325;-55
2023/10/15 08:34:49;;;;;;;;;;;;;;;26.21;43.30;94598.56;4992202;28;7353;-61
2023/10/15 08:37:28;;;;;;;;;;;;;;;26.20;43.13;94601.84;5000502;28;9280;-61
2023/10/15 08:40:04;;;;;;;;;;;;;;;26.20;43.32;94602.59;5010937;28;9261;-62
2023/10/15 08:43:14;;;;;;;;;;;;;;;26.20;43.10;94599.09;5010999;28;8809;-61
2023/10/15 08:45:43;;;;;;;;;;;;;;;26.21;42.54;94590.28;4991191;28;9718;-61
2023/10/15 08:48:25;;;;;;;;;;;;;;;26.22;43.26;94597.31;5011152;28;7193;-60
2023/10/15 08:51:12;;;;;;;;;;;;;;;26.19;43.35;94587.31;4984890;28;9153;-61
2023/10/15 08:54:11;;;;;;;;;;;;;;;26.21;42.74;94600.59;4991467;28;7274;-61
2023/10/15 08:56:47;;;;;;;;;;;;;;;26.19;43.28;94603.13;4953683;28;9517;-61
2023/10/15 08:59:31;;;;;;;;;;;;;;;26.19;43.34;94603.13;5010387;28;7240;-61
2023/10/15 09:01:59;;;;;;;;;;;;;;;26.19;43.31;94606.59;5009002;28;7329;-61
2023/10/15 09:04:47;;;;;;;;;;;;;;;26.19;43.05;94614.16;5017144;28;7229;-61
2023/10/15 09:07:14;;;;;;;;;;;;;;;26.19;43.00;94605.88;5004284;28;9119;-61
2023/10/15 09:09:45;;;;;;;;;;;;;;;26.18;43.40;94602.34;4981556;28;7261;-60
2023/10/15 09:12:28;;;;;;;;;;;;;;;26.12;43.54;94596.84;5006316;28;7462;-61
2023/10/15 09:14:55;;;;;;;;;;;;;;;26.13;43.75;94601.13;4996257;28;7001;-60
2023/10/15 09:17:30;;;;;;;;;;;;;;;26.10;43.14;94601.38;4994984;28;7144;-61
2023/10/15 09:20:09;;;;;;;;;;;;;;;26.15;43.76;94606.88;5009529;28;7165;-61
2023/10/15 09:22:38;;;;;;;;;;;;;;;26.14;43.68;94608.13;5006329;28;7228;-61
2023/10/15 09:25:14;;;;;;;;;;;;;;;26.12;43.25;94610.63;4986710;28;7101;-61
2023/10/15 09:27:47;;;;;;;;;;;;;;;26.14;43.08;94612.91;5026360;28;7242;-61
2023/10/15 09:30:21;;;;;;;;;;;;;;;26.15;43.67;94604.13;5025863;28;7241;-61
2023/10/15 09:32:57;;;;;;;;;;;;;;;26.12;43.04;94607.88;5045904;28;7236;-61
2023/10/15 09:35:29;;;;;;;;;;;;;;;26.13;43.11;94603.13;5055267;28;7231;-61
2023/10/15 09:37:56;;;;;;;;;;;;;;;26.12;43.71;94602.38;5062127;28;6992;-61
2023/10/15 09:40:30;;;;;;;;;;;;;;;26.12;42.88;94598.88;5053053;28;7476;-61
2023/10/15 09:42:57;;;;;;;;;;;;;;;26.14;43.45;94599.13;5082656;28;7035;-61
2023/10/15 09:45:23;;;;;;;;;;;;;;;26.11;43.29;94600.13;5065291;28;9041;-63
2023/10/15 09:47:57;;;;;;;;;;;;;;;26.10;43.19;94606.88;5054697;28;8448;-63
2023/10/15 09:50:31;;;;;;;;;;;;;;;26.06;43.37;94598.13;5089392;28;7521;-63
2023/10/15 09:53:09;;;;;;;;;;;;;;;26.09;43.51;94603.41;5076173;28;7171;-63
2023/10/15 09:55:36;;;;;;;;;;;;;;;26.10;43.85;94604.88;5061836;28;7235;-63
2023/10/15 09:58:15;;;;;;;;;;;;;;;26.09;44.02;94595.13;5073088;28;9158;-63
2023/10/15 10:03:49;;;;;;;;;;;;;;;26.09;43.71;94606.16;5068454;28;8810;-63
2023/10/15 10:06:55;;;;;;;;;;;;;;;26.07;43.46;94597.63;5053990;28;7065;-63
2023/10/15 10:09:47;;;;;;;;;;;;;;;26.06;43.37;94598.13;5075188;28;7211;-63
2023/10/15 10:13:07;;;;;;;;;;;;;;;26.06;43.40;94596.13;5039530;28;7064;-63
2023/10/15 10:15:38;;;;;;;;;;;;;;;26.06;43.53;94598.88;5071842;28;7262;-63
2023/10/15 10:18:08;;;;;;;;;;;;;;;26.08;43.57;94598.34;5087971;28;7451;-63
2023/10/15 10:20:38;;;;;;;;;;;;;;;26.07;43.01;94597.63;5067054;28;7419;-63
2023/10/15 10:23:14;;;;;;;;;;;;;;;26.05;43.73;94589.13;5057913;28;7378;-63
2023/10/15 10:25:45;;;;;;;;;;;;;;;26.09;43.17;94594.38;5060240;28;7212;-63
2023/10/15 10:28:44;;;;;;;;;;;;;;;26.09;43.56;94592.38;5093804;28;7308;-62
2023/10/15 10:31:11;;;;;;;;;;;;;;;26.08;43.44;94593.63;4989996;28;9189;-62
2023/10/15 10:33:45;;;;;;;;;;;;;;;26.08;43.41;94588.13;4968619;28;7215;-63
2023/10/15 10:36:17;;;;;;;;;;;;;;;26.05;43.61;94591.88;4992910;28;6987;-63
2023/10/15 10:39:10;;;;;;;;;;;;;;;26.06;43.29;94587.09;4984678;28;7252;-63
2023/10/15 10:41:39;;;;;;;;;;;;;;;26.08;43.48;94587.31;4994767;28;9369;-63
2023/10/15 10:44:33;;;;;;;;;;;;;;;26.07;43.32;94585.84;4994275;28;8829;-63
2023/10/15 10:47:18;;;;;;;;;;;;;;;26.06;43.46;94578.81;4986018;28;9101;-62
2023/10/15 10:50:03;;;;;;;;;;;;;;;26.07;43.32;94586.59;4986068;28;7417;-63
2023/10/15 10:52:34;;;;;;;;;;;;;;;26.09;43.63;94583.34;5004017;28;8770;-63
2023/10/15 10:55:36;;;;;;;;;;;;;;;26.07;43.57;94575.56;5002425;28;7264;-64
2023/10/15 10:58:08;;;;;;;;;;;;;;;26.07;43.09;94575.56;5008395;28;9248;-64
2023/10/15 11:00:34;;;;;;;;;;;;;;;26.06;42.96;94560.28;4979958;28;9113;-63
2023/10/15 11:03:06;;;;;;;;;;;;;;;26.04;43.60;94560.03;4986265;28;7288;-64
2023/10/15 11:05:38;;;;;;;;;;;;;;;26.01;43.38;94561.06;4998997;28;9084;-63
2023/10/15 11:08:29;;;;;;;;;;;;;;;26.04;43.77;94564.81;5020192;28;7321;-63
2023/10/15 11:10:59;;;;;;;;;;;;;;;26.03;43.21;94552.28;5057668;28;7729;-64
2023/10/15 11:13:30;;;;;;;;;;;;;;;26.03;43.95;94561.28;5053070;28;8776;-64
2023/10/15 11:15:56;;;;;;;;;;;;;;;26.04;43.86;94562.03;5043547;28;9077;-63
2023/10/15 11:18:34;;;;;;;;;;;;;;;26.02;43.30;94546.03;5042529;28;8738;-64
2023/10/15 11:21:09;;;;;;;;;;;;;;;26.02;43.21;94557.06;5063580;28;7070;-64
2023/10/15 11:23:45;;;;;;;;;;;;;;;26.03;43.34;94553.03;5062190;28;7258;-63
2023/10/15 11:26:13;;;;;;;;;;;;;;;26.03;43.61;94549.53;5071376;28;6979;-64
2023/10/15 11:28:51;;;;;;;;;;;;;;;26.02;43.28;94543.28;5072625;28;7079;-64
2023/10/15 11:31:27;;;;;;;;;;;;;;;26.02;43.47;94545.28;5060534;28;7023;-63
2023/10/15 11:33:55;;;;;;;;;;;;;;;26.03;43.06;94542.00;5042078;28;7171;-64
2023/10/15 11:36:36;;;;;;;;;;;;;;;26.04;42.94;94528.97;5052019;28;9173;-64
2023/10/15 11:39:08;;;;;;;;;;;;;;;26.04;43.49;94531.72;5095230;28;9150;-63
2023/10/15 11:41:50;;;;;;;;;;;;;;;26.04;43.28;94526.22;5062213;28;7216;-63
2023/10/15 11:44:25;;;;;;;;;;;;;;;26.00;43.60;94515.47;5070716;28;7135;-64
2023/10/15 11:46:56;;;;;;;;;;;;;;;26.01;43.72;94522.47;5055535;28;7835;-64
2023/10/15 11:49:25;;;;;;;;;;;;;;;26.02;43.55;94523.97;5058971;28;7236;-64
2023/10/15 11:51:58;;;;;;;;;;;;;;;26.04;43.07;94513.19;5048558;28;7237;-63
2023/10/15 11:54:28;;;;;;;;;;;;;;;26.01;43.58;94519.72;5073847;28;9268;-63
2023/10/15 11:57:00;;;;;;;;;;;;;;;26.03;43.30;94517.19;5068062;28;7236;-64
2023/10/15 11:59:27;;;;;;;;;;;;;;;26.06;43.80;94507.91;5062909;28;7379;-63
2023/10/15 12:01:54;;;;;;;;;;;;;;;26.07;43.34;94511.41;5043725;28;9189;-64
2023/10/15 12:04:23;;;;;;;;;;;;;;;26.07;43.21;94514.19;5052584;28;9004;-63
2023/10/15 12:06:49;;;;;;;;;;;;;;;26.04;43.22;94504.91;5063661;28;8800;-62
2023/10/15 12:09:47;;;;;;;;;;;;;;;26.06;43.44;94502.41;5052316;28;7511;-63
2023/10/15 12:12:20;;;;;;;;;;;;;;;26.08;43.32;94507.38;4989661;28;7224;-63
2023/10/15 12:14:46;;;;;;;;;;;;;;;26.05;43.28;94505.66;4990724;28;8031;-63
2023/10/15 12:17:23;;;;;;;;;;;;;;;26.05;43.44;94522.97;4978017;28;9018;-62
2023/10/15 12:19:51;;;;;;;;;;;;;;;26.06;43.69;94520.94;4965740;28;7122;-63
2023/10/15 12:22:22;;;;;;;;;;;;;;;26.11;43.33;94520.94;4982606;28;7223;-62
2023/10/15 12:24:51;;;;;;;;;;;;;;;26.09;43.75;94520.72;4973713;28;7347;-62
2023/10/15 12:27:17;;;;;;;;;;;;;;;26.08;43.49;94526.69;4966125;28;8838;-62
2023/10/15 12:29:46;;;;;;;;;;;;;;;26.09;43.18;94534.50;4980965;28;7444;-62
2023/10/15 12:32:14;;;;;;;;;;;;;;;26.06;43.82;94546.50;4972836;28;7271;-62
2023/10/15 12:34:40;;;;;;;;;;;;;;;26.05;43.77;94552.53;4987264;28;6989;-62
2023/10/15 12:37:12;;;;;;;;;;;;;;;26.07;43.47;94559.03;4979541;28;7249;-63
2023/10/15 12:39:40;;;;;;;;;;;;;;;26.08;43.63;94570.78;4982206;28;7649;-62
2023/10/15 12:42:11;;;;;;;;;;;;;;;26.07;43.05;94570.06;4997895;28;8428;-62
2023/10/15 12:44:40;;;;;;;;;;;;;;;26.10;43.56;94580.09;4992865;28;7107;-63
2023/10/15 12:47:15;;;;;;;;;;;;;;;26.09;43.67;94583.34;4982342;28;6988;-62
2023/10/15 12:49:41;;;;;;;;;;;;;;;26.01;43.85;94569.31;5053054;28;7258;-63
2023/10/15 12:52:10;;;;;;;;;;;;;;;26.08;43.65;94593.63;5085864;28;7293;-62
2023/10/15 12:54:36;;;;;;;;;;;;;;;26.08;43.60;94593.63;5044454;28;6982;-62
2023/10/15 12:57:04;;;;;;;;;;;;;;;26.08;43.43;94603.88;5063555;28;9007;-63
2023/10/15 12:59:30;;;;;;;;;;;;;;;26.05;43.60;94608.41;5067789;28;8792;-63
2023/10/15 13:01:59;;;;;;;;;;;;;;;26.05;43.03;94605.66;5069803;28;8773;-63
2023/10/15 13:04:24;;;;;;;;;;;;;;;26.04;43.83;94597.88;5064149;28;6963;-63
2023/10/15 13:06:50;;;;;;;;;;;;;;;26.04;43.86;94598.63;5057696;28;9532;-62
2023/10/15 13:09:25;;;;;;;;;;;;;;;26.03;43.62;94597.13;5066446;28;9267;-63
2023/10/15 13:11:55;;;;;;;;;;;;;;;26.05;43.57;94588.38;5046942;28;7218;-63
2023/10/15 13:14:24;;;;;;;;;;;;;;;26.06;43.75;94596.13;5064132;28;7328;-61
2023/10/15 13:16:54;;;;;;;;;;;;;;;26.06;43.22;94596.13;5049115;28;7005;-61
2023/10/15 13:19:20;;;;;;;;;;;;;;;26.06;43.19;94601.63;5059612;28;7163;-60
2023/10/15 13:21:46;;;;;;;;;;;;;;;26.02;43.78;94598.41;5051395;28;7253;-61
2023/10/15 13:24:17;;;;;;;;;;;;;;;26.04;43.70;94604.16;5067183;28;9134;-61
2023/10/15 13:26:45;;;;;;;;;;;;;;;26.04;43.88;94609.66;5050609;28;9485;-61
2023/10/15 13:29:11;;;;;;;;;;;;;;;26.04;43.87;94611.66;5066573;28;7229;-61
2023/10/15 13:31:40;;;;;;;;;;;;;;;26.04;43.23;94606.16;5069337;28;9055;-61
2023/10/15 13:34:12;;;;;;;;;;;;;;;26.03;43.64;94607.41;5050170;28;7754;-61
2023/10/15 13:36:38;;;;;;;;;;;;;;;26.02;43.24;94612.19;5054550;28;7012;-61
2023/10/15 13:39:05;;;;;;;;;;;;;;;26.02;43.67;94614.94;5055610;28;7366;-61
2023/10/15 13:41:34;;;;;;;;;;;;;;;26.02;43.47;94617.69;5068522;28;9171;-60
2023/10/15 13:44:00;;;;;;;;;;;;;;;26.02;43.32;94616.94;5067546;28;8971;-61
2023/10/15 13:46:26;;;;;;;;;;;;;;;26.02;43.22;94623.19;5049600;28;7276;-61
2023/10/15 13:48:53;;;;;;;;;;;;;;;26.01;43.22;94616.19;5066383;28;9070;-61
2023/10/15 13:51:20;;;;;;;;;;;;;;;26.01;43.67;94618.19;5079136;28;8146;-61